HCMH

Egal International Airport

Hargeisa, Somalia
METAR HCMH 101300Z 35010KT CAVOK 24/12 Q1019
Observed Flight Rules
Dec-10 @ 13:00 UTC (2 hours ago) Visual Flight Rules
Wind Visibility Clouds
350° at 10 knots 10,000+ meters
  • Clear skies
Temperatures Readings
Current 24°C / 75°F
Dewpoint 12°C / 54°F
Humidity 47%
Altimeter 30.09" Hg
Pressure 1019 hPa
Elevation 1326
METAR HCMH 101300Z 35010KT CAVOK 24/12 Q1019
Observed Flight Rules
Dec-10 @ 13:00 UTC
(2 hours ago)
VFR
Wind Visibility
350° at 10 knots 10,000+ meters
Clouds
  • Clear skies
Temperature Dewpoint
24°C / 75°F 12°C / 54°F
Humidity Altimeter Pressure
47% 30.09" Hg 1019 hPa